Time;durP1;ratioP1;P1;durP2;ratioP2;P2;SDS_P1;SDS_P2;PMS_P1;PMS_P2;Temp;Humidity;BMP_temperature;BMP_pressure;BME280_temperature;BME280_humidity;BME280_pressure;Samples;Min_cycle;Max_cycle;Signal;HPM_P1;HPM_P2
2023/02/18 00:01:53;;;;;;;22.52;2.90;;;;;;;;;;6127278;23;20686;-86
2023/02/18 00:04:22;;;;;;;23.40;3.22;;;;;;;;;;6153225;23;20378;-86
2023/02/18 00:06:56;;;;;;;17.73;2.40;;;;;;;;;;6127213;23;20383;-85
2023/02/18 00:09:24;;;;;;;30.58;3.65;;;;;;;;;;6153767;23;20374;-85
2023/02/18 00:11:52;;;;;;;20.25;2.95;;;;;;;;;;6127963;23;20363;-85
2023/02/18 00:14:20;;;;;;;24.83;3.03;;;;;;;;;;6151627;23;20389;-85
2023/02/18 00:16:48;;;;;;;22.27;3.42;;;;;;;;;;6151496;23;20379;-87
2023/02/18 00:19:18;;;;;;;20.48;3.40;;;;;;;;;;6150723;23;20693;-85
2023/02/18 00:21:46;;;;;;;23.05;2.85;;;;;;;;;;6153355;23;20847;-86
2023/02/18 00:24:21;;;;;;;24.08;2.75;;;;;;;;;;6151485;23;20405;-88
2023/02/18 00:26:50;;;;;;;26.00;3.30;;;;;;;;;;6153624;23;20375;-85
2023/02/18 00:29:18;;;;;;;24.58;2.88;;;;;;;;;;6125993;23;20393;-84
2023/02/18 00:31:48;;;;;;;28.38;3.60;;;;;;;;;;6151362;23;20381;-85
2023/02/18 00:34:16;;;;;;;22.48;2.72;;;;;;;;;;6126409;23;20387;-85
2023/02/18 00:36:43;;;;;;;26.80;3.27;;;;;;;;;;6126888;23;20367;-86
2023/02/18 00:39:11;;;;;;;24.70;2.93;;;;;;;;;;6153812;23;20700;-85
2023/02/18 00:41:42;;;;;;;21.35;3.40;;;;;;;;;;6126071;23;20382;-86
2023/02/18 00:44:10;;;;;;;23.20;3.10;;;;;;;;;;6127480;23;20871;-88
2023/02/18 00:46:43;;;;;;;27.10;3.85;;;;;;;;;;6163679;23;20859;-86
2023/02/18 00:49:16;;;;;;;26.05;3.58;;;;;;;;;;6127119;23;20386;-87
2023/02/18 00:51:43;;;;;;;24.40;3.22;;;;;;;;;;6126558;23;20863;-84
2023/02/18 00:54:16;;;;;;;19.50;3.08;;;;;;;;;;6151296;23;20393;-87
2023/02/18 00:56:52;;;;;;;30.75;3.65;;;;;;;;;;6165284;23;20363;-86
2023/02/18 00:59:20;;;;;;;23.35;3.22;;;;;;;;;;6129101;23;20387;-86
2023/02/18 01:01:48;;;;;;;28.92;3.90;;;;;;;;;;6155326;23;21111;-87
2023/02/18 01:04:15;;;;;;;22.83;3.43;;;;;;;;;;6128139;23;20379;-86
2023/02/18 01:06:48;;;;;;;26.10;3.10;;;;;;;;;;6128462;23;20398;-85
2023/02/18 01:09:16;;;;;;;19.13;3.37;;;;;;;;;;6128378;23;20418;-85
2023/02/18 01:11:44;;;;;;;22.52;3.17;;;;;;;;;;6129259;23;20383;-87
2023/02/18 01:14:13;;;;;;;29.80;3.70;;;;;;;;;;6155298;23;20867;-87
2023/02/18 01:16:46;;;;;;;20.75;3.28;;;;;;;;;;6129376;23;20387;-88
2023/02/18 01:19:14;;;;;;;23.03;3.07;;;;;;;;;;6128342;23;20394;-88
2023/02/18 01:21:47;;;;;;;26.10;3.42;;;;;;;;;;6129045;23;20382;-86
2023/02/18 01:24:19;;;;;;;21.25;2.90;;;;;;;;;;6152755;23;20375;-87
2023/02/18 01:26:47;;;;;;;26.63;3.20;;;;;;;;;;6127876;23;20780;-88
2023/02/18 01:29:16;;;;;;;22.50;2.95;;;;;;;;;;6128684;23;20375;-86
2023/02/18 01:31:44;;;;;;;19.98;2.83;;;;;;;;;;6128782;23;20383;-86
2023/02/18 01:34:17;;;;;;;21.42;3.05;;;;;;;;;;6164736;23;20387;-87
2023/02/18 01:36:45;;;;;;;22.73;3.38;;;;;;;;;;6128313;23;20386;-87
2023/02/18 01:39:17;;;;;;;23.88;3.10;;;;;;;;;;6127892;23;20379;-85
2023/02/18 01:41:50;;;;;;;21.50;2.95;;;;;;;;;;6129026;23;20860;-87
2023/02/18 01:44:21;;;;;;;22.48;3.15;;;;;;;;;;6128504;23;20383;-86
2023/02/18 01:46:49;;;;;;;22.52;3.05;;;;;;;;;;6152739;23;20391;-86
2023/02/18 01:49:18;;;;;;;19.60;3.33;;;;;;;;;;6152807;23;20393;-87
2023/02/18 01:51:49;;;;;;;25.67;3.60;;;;;;;;;;6152818;23;20390;-85
2023/02/18 01:54:26;;;;;;;19.83;2.53;;;;;;;;;;6127693;23;20871;-88
2023/02/18 01:57:01;;;;;;;23.92;3.13;;;;;;;;;;6152526;23;20371;-84
2023/02/18 01:59:37;;;;;;;24.45;3.10;;;;;;;;;;6164746;23;20363;-85
2023/02/18 02:02:07;;;;;;;25.20;3.30;;;;;;;;;;6128540;23;20390;-86
2023/02/18 02:04:35;;;;;;;25.50;3.10;;;;;;;;;;6128109;23;20382;-87
2023/02/18 02:07:03;;;;;;;23.17;3.10;;;;;;;;;;6152315;23;20390;-85
2023/02/18 02:09:32;;;;;;;23.77;2.72;;;;;;;;;;6127880;23;20390;-86
2023/02/18 02:12:17;;;;;;;23.03;3.10;;;;;;;;;;6154627;23;20374;-87
2023/02/18 02:14:53;;;;;;;23.02;3.00;;;;;;;;;;6128197;23;20379;-86
2023/02/18 02:17:26;;;;;;;21.83;3.07;;;;;;;;;;6127466;23;20379;-86
2023/02/18 02:20:10;;;;;;;21.25;3.15;;;;;;;;;;6128103;23;20383;-85
2023/02/18 02:22:54;;;;;;;20.90;3.10;;;;;;;;;;6164582;23;20367;-87
2023/02/18 02:25:30;;;;;;;23.00;3.10;;;;;;;;;;6127876;23;20389;-86
2023/02/18 02:28:16;;;;;;;23.63;2.72;;;;;;;;;;6127897;23;20383;-85
2023/02/18 02:31:08;;;;;;;26.00;2.85;;;;;;;;;;6128231;23;20839;-86
2023/02/18 02:34:00;;;;;;;24.13;3.00;;;;;;;;;;6164463;23;20847;-85
2023/02/18 02:36:38;;;;;;;17.73;2.70;;;;;;;;;;6152329;23;20393;-86
2023/02/18 02:39:08;;;;;;;22.25;2.92;;;;;;;;;;6127963;23;20386;-86
2023/02/18 02:41:43;;;;;;;25.55;3.20;;;;;;;;;;6128024;23;20390;-86
2023/02/18 02:44:20;;;;;;;23.25;3.00;;;;;;;;;;6127798;23;20386;-84
2023/02/18 02:46:51;;;;;;;21.98;2.95;;;;;;;;;;6152425;23;20706;-86
2023/02/18 02:49:28;;;;;;;27.88;3.63;;;;;;;;;;6152264;23;20390;-87
2023/02/18 02:52:00;;;;;;;18.77;2.70;;;;;;;;;;6128096;23;21040;-87
2023/02/18 02:54:28;;;;;;;24.02;3.28;;;;;;;;;;6128277;23;20379;-85
2023/02/18 02:57:07;;;;;;;23.95;2.78;;;;;;;;;;6151518;23;20383;-86
2023/02/18 02:59:39;;;;;;;22.90;3.13;;;;;;;;;;6127519;23;20694;-86
2023/02/18 03:02:15;;;;;;;17.80;2.63;;;;;;;;;;6127703;23;20390;-86
2023/02/18 03:04:52;;;;;;;22.85;3.08;;;;;;;;;;6128077;23;20379;-85
2023/02/18 03:07:46;;;;;;;19.75;2.45;;;;;;;;;;6127929;23;20387;-86
2023/02/18 03:10:26;;;;;;;31.23;3.47;;;;;;;;;;6123032;23;20745;-86
2023/02/18 03:13:04;;;;;;;15.30;2.35;;;;;;;;;;6152087;23;20705;-85
2023/02/18 03:15:40;;;;;;;19.60;2.40;;;;;;;;;;6127761;23;20379;-85
2023/02/18 03:18:11;;;;;;;15.93;2.08;;;;;;;;;;6151558;23;20374;-85
2023/02/18 03:20:50;;;;;;;17.80;2.78;;;;;;;;;;6126949;23;20386;-86
2023/02/18 03:23:20;;;;;;;16.30;2.63;;;;;;;;;;6127987;23;20910;-86
2023/02/18 03:25:50;;;;;;;22.58;2.53;;;;;;;;;;6127773;23;20391;-86
2023/02/18 03:28:19;;;;;;;19.65;2.35;;;;;;;;;;6151685;23;20387;-86
2023/02/18 03:30:48;;;;;;;20.30;2.58;;;;;;;;;;6127183;23;20382;-83
2023/02/18 03:33:18;;;;;;;20.40;2.50;;;;;;;;;;6127374;23;20386;-85
2023/02/18 03:35:46;;;;;;;18.92;2.40;;;;;;;;;;6151560;23;20383;-84
2023/02/18 03:38:19;;;;;;;19.40;2.80;;;;;;;;;;6127926;23;20864;-85
2023/02/18 03:40:47;;;;;;;20.42;2.53;;;;;;;;;;6127393;23;20383;-86
2023/02/18 03:43:21;;;;;;;17.73;2.47;;;;;;;;;;6128004;23;20383;-86
2023/02/18 03:45:49;;;;;;;20.08;2.80;;;;;;;;;;6126604;23;20875;-86
2023/02/18 03:48:22;;;;;;;23.40;2.38;;;;;;;;;;6127521;23;20387;-86
2023/02/18 03:50:52;;;;;;;20.85;2.35;;;;;;;;;;6127844;23;20386;-85
2023/02/18 03:53:20;;;;;;;16.23;2.23;;;;;;;;;;6127378;23;20394;-84
2023/02/18 03:55:48;;;;;;;18.10;2.33;;;;;;;;;;6153940;23;20371;-86
2023/02/18 03:58:15;;;;;;;21.57;2.23;;;;;;;;;;6127053;23;20678;-86
2023/02/18 04:00:50;;;;;;;15.30;1.90;;;;;;;;;;6163810;23;20709;-86
2023/02/18 04:03:17;;;;;;;21.48;2.53;;;;;;;;;;6127067;23;20395;-85
2023/02/18 04:05:46;;;;;;;18.90;2.50;;;;;;;;;;6127015;23;20387;-85
2023/02/18 04:08:19;;;;;;;15.48;2.13;;;;;;;;;;6127224;23;20844;-85
2023/02/18 04:10:52;;;;;;;16.70;2.22;;;;;;;;;;6127595;23;20386;-85
2023/02/18 04:13:20;;;;;;;16.98;2.10;;;;;;;;;;6127098;23;20379;-85
2023/02/18 04:15:50;;;;;;;14.45;2.17;;;;;;;;;;6151476;23;20461;-86
2023/02/18 04:18:18;;;;;;;17.73;2.40;;;;;;;;;;6153807;23;20363;-85
2023/02/18 04:20:46;;;;;;;16.17;2.00;;;;;;;;;;6127005;23;20382;-86
2023/02/18 04:23:14;;;;;;;11.90;1.75;;;;;;;;;;6153441;23;20374;-86
2023/02/18 04:25:47;;;;;;;17.02;1.92;;;;;;;;;;6127166;23;20866;-85
2023/02/18 04:28:15;;;;;;;15.63;1.98;;;;;;;;;;6153764;23;20367;-87
2023/02/18 04:30:43;;;;;;;13.73;2.20;;;;;;;;;;6129026;23;20405;-85
2023/02/18 04:33:13;;;;;;;12.88;2.00;;;;;;;;;;6128953;23;20386;-86
2023/02/18 04:35:40;;;;;;;12.23;2.17;;;;;;;;;;6128073;23;20383;-88
2023/02/18 04:38:13;;;;;;;9.38;1.40;;;;;;;;;;6128164;23;20867;-86
2023/02/18 04:40:46;;;;;;;11.50;1.73;;;;;;;;;;6153528;23;20382;-87
2023/02/18 04:43:14;;;;;;;11.80;1.60;;;;;;;;;;6153394;23;20391;-84
2023/02/18 04:45:41;;;;;;;14.57;1.98;;;;;;;;;;6128356;23;20387;-88
2023/02/18 04:48:16;;;;;;;10.63;1.55;;;;;;;;;;6129387;23;20862;-87
2023/02/18 04:50:48;;;;;;;9.05;1.45;;;;;;;;;;6162407;23;20382;-87
2023/02/18 04:53:21;;;;;;;12.13;1.67;;;;;;;;;;6129067;23;20394;-85
2023/02/18 04:55:54;;;;;;;9.13;1.38;;;;;;;;;;6152890;23;20383;-84
2023/02/18 04:58:27;;;;;;;10.32;1.30;;;;;;;;;;6129211;23;20387;-86
2023/02/18 05:00:58;;;;;;;11.52;1.60;;;;;;;;;;6128378;23;20382;-86
2023/02/18 05:03:28;;;;;;;10.93;1.70;;;;;;;;;;6128767;23;20383;-88
2023/02/18 05:06:01;;;;;;;13.55;1.83;;;;;;;;;;6164917;23;20375;-87
2023/02/18 05:08:33;;;;;;;10.15;1.48;;;;;;;;;;6153178;23;20890;-87
2023/02/18 05:11:07;;;;;;;11.30;1.80;;;;;;;;;;6152767;23;20383;-88
2023/02/18 05:13:40;;;;;;;14.77;2.17;;;;;;;;;;6165253;23;20382;-86
2023/02/18 05:16:07;;;;;;;16.67;1.80;;;;;;;;;;6152422;23;20402;-87
2023/02/18 05:18:36;;;;;;;10.85;1.70;;;;;;;;;;6155295;23;20371;-87
2023/02/18 05:21:10;;;;;;;14.98;1.75;;;;;;;;;;6155233;23;20870;-87
2023/02/18 05:23:38;;;;;;;12.23;1.60;;;;;;;;;;6128267;23;20387;-84
2023/02/18 05:26:06;;;;;;;13.73;1.83;;;;;;;;;;6155202;23;20464;-87
2023/02/18 05:28:39;;;;;;;8.93;1.50;;;;;;;;;;6164953;23;20464;-87
2023/02/18 05:31:12;;;;;;;12.57;2.13;;;;;;;;;;6128637;23;20487;-88
2023/02/18 05:33:41;;;;;;;11.65;2.00;;;;;;;;;;6128650;23;21151;-87
2023/02/18 05:36:09;;;;;;;12.88;1.63;;;;;;;;;;6128905;23;20863;-86
2023/02/18 05:38:42;;;;;;;13.00;1.80;;;;;;;;;;6152953;23;20402;-86
2023/02/18 05:41:09;;;;;;;10.30;1.42;;;;;;;;;;6128681;23;20398;-87
2023/02/18 05:46:24;;;;;;;11.75;1.40;;;;;;;;;;6128952;23;20390;-85
2023/02/18 05:48:53;;;;;;;13.57;2.00;;;;;;;;;;6155107;23;20824;-87
2023/02/18 05:51:26;;;;;;;12.45;2.30;;;;;;;;;;6152696;23;20786;-84
2023/02/18 05:53:59;;;;;;;14.77;1.83;;;;;;;;;;6128547;23;20399;-86
2023/02/18 05:56:26;;;;;;;9.85;1.38;;;;;;;;;;6128673;23;20401;-87
2023/02/18 05:58:54;;;;;;;8.70;1.48;;;;;;;;;;6154950;23;20371;-86
2023/02/18 06:01:27;;;;;;;13.05;1.85;;;;;;;;;;6152164;23;21190;-87
2023/02/18 06:03:56;;;;;;;8.98;1.50;;;;;;;;;;6152404;23;20371;-86
2023/02/18 06:06:29;;;;;;;11.65;1.67;;;;;;;;;;6164047;23;20390;-88
2023/02/18 06:09:02;;;;;;;10.57;1.55;;;;;;;;;;6164339;23;20383;-84
2023/02/18 06:11:35;;;;;;;9.25;1.65;;;;;;;;;;6164277;23;20700;-88
2023/02/18 06:14:03;;;;;;;11.38;1.63;;;;;;;;;;6128289;23;20402;-87
2023/02/18 06:16:31;;;;;;;10.35;1.60;;;;;;;;;;6154329;23;20368;-87
2023/02/18 06:19:05;;;;;;;9.83;1.53;;;;;;;;;;6163183;23;20847;-88
2023/02/18 06:21:33;;;;;;;9.98;1.45;;;;;;;;;;6128281;23;20398;-87
2023/02/18 06:24:06;;;;;;;10.57;1.58;;;;;;;;;;6127258;23;20443;-86
2023/02/18 06:26:34;;;;;;;14.27;2.20;;;;;;;;;;6152254;23;20720;-87
2023/02/18 06:29:02;;;;;;;8.10;1.53;;;;;;;;;;6128283;23;20378;-87
2023/02/18 06:31:35;;;;;;;9.93;1.88;;;;;;;;;;6127383;23;20384;-87
2023/02/18 06:34:09;;;;;;;14.13;1.63;;;;;;;;;;6127481;23;20387;-87
2023/02/18 06:36:42;;;;;;;9.68;1.80;;;;;;;;;;6163804;23;20390;-87
2023/02/18 06:39:10;;;;;;;10.68;1.70;;;;;;;;;;6154679;23;20367;-86
2023/02/18 06:41:42;;;;;;;11.75;1.90;;;;;;;;;;6164244;23;20378;-87
2023/02/18 06:44:16;;;;;;;16.70;2.75;;;;;;;;;;6164138;23;20375;-88
2023/02/18 06:46:44;;;;;;;10.77;1.77;;;;;;;;;;6128040;23;20379;-86
2023/02/18 06:49:13;;;;;;;9.52;2.10;;;;;;;;;;6125343;23;20387;-86
2023/02/18 06:51:40;;;;;;;12.40;2.00;;;;;;;;;;6153191;23;20379;-87
2023/02/18 06:54:13;;;;;;;7.55;1.63;;;;;;;;;;6150837;23;20379;-88
2023/02/18 06:56:47;;;;;;;15.60;2.30;;;;;;;;;;6163658;23;20392;-86
2023/02/18 06:59:21;;;;;;;11.32;2.28;;;;;;;;;;6126597;23;21493;-83
2023/02/18 07:01:54;;;;;;;10.23;1.75;;;;;;;;;;6150310;23;20386;-82
2023/02/18 07:04:28;;;;;;;11.90;1.90;;;;;;;;;;6163294;23;20379;-87
2023/02/18 07:06:56;;;;;;;13.40;2.22;;;;;;;;;;6126847;23;20389;-87
2023/02/18 07:09:29;;;;;;;12.32;2.00;;;;;;;;;;6163880;23;20382;-86
2023/02/18 07:12:01;;;;;;;9.02;1.67;;;;;;;;;;6163255;23;20740;-86
2023/02/18 07:14:29;;;;;;;12.53;1.73;;;;;;;;;;6127339;23;20974;-87
2023/02/18 07:16:57;;;;;;;9.10;1.60;;;;;;;;;;6151039;23;20949;-88
2023/02/18 07:19:31;;;;;;;8.90;1.57;;;;;;;;;;6128208;23;20467;-86
2023/02/18 07:22:00;;;;;;;7.93;1.88;;;;;;;;;;6151647;23;20383;-88
2023/02/18 07:24:28;;;;;;;10.27;1.63;;;;;;;;;;6126782;23;20383;-88
2023/02/18 07:26:55;;;;;;;9.50;1.80;;;;;;;;;;6127571;23;20409;-89
2023/02/18 07:29:23;;;;;;;9.98;1.60;;;;;;;;;;6127696;23;20685;-87
2023/02/18 07:31:51;;;;;;;9.80;1.67;;;;;;;;;;6126974;23;20398;-87
2023/02/18 07:34:19;;;;;;;8.48;1.67;;;;;;;;;;6126497;23;20379;-88
2023/02/18 07:36:48;;;;;;;8.60;1.70;;;;;;;;;;6127504;23;20390;-88
2023/02/18 07:39:19;;;;;;;11.70;1.80;;;;;;;;;;6127774;23;20387;-88
2023/02/18 07:41:48;;;;;;;13.13;1.95;;;;;;;;;;6127272;23;20379;-87
2023/02/18 07:44:19;;;;;;;10.52;1.70;;;;;;;;;;6127306;23;20387;-86
2023/02/18 07:46:47;;;;;;;6.57;1.37;;;;;;;;;;6152186;23;20713;-88
2023/02/18 07:49:20;;;;;;;6.68;1.45;;;;;;;;;;6127233;23;20875;-89
2023/02/18 07:51:50;;;;;;;8.57;1.45;;;;;;;;;;6127446;23;20379;-88
2023/02/18 07:54:18;;;;;;;9.20;1.80;;;;;;;;;;6151976;23;20386;-88
2023/02/18 07:56:46;;;;;;;12.43;2.13;;;;;;;;;;6153982;23;20367;-88
2023/02/18 07:59:14;;;;;;;8.90;1.63;;;;;;;;;;6127091;23;20393;-85
2023/02/18 08:01:42;;;;;;;9.93;1.90;;;;;;;;;;6153642;23;20367;-87
2023/02/18 08:04:09;;;;;;;11.40;1.90;;;;;;;;;;6127467;23;20386;-90
2023/02/18 08:06:38;;;;;;;9.77;1.70;;;;;;;;;;6154992;23;20374;-89
2023/02/18 08:09:13;;;;;;;8.52;1.60;;;;;;;;;;6165871;23;20387;-89
2023/02/18 08:11:41;;;;;;;10.30;1.75;;;;;;;;;;6155496;23;20844;-88
2023/02/18 08:14:09;;;;;;;8.32;1.80;;;;;;;;;;6155832;23;20370;-87
2023/02/18 08:16:42;;;;;;;10.48;1.88;;;;;;;;;;6165284;23;20379;-86
2023/02/18 08:19:10;;;;;;;10.80;1.70;;;;;;;;;;6153173;23;20828;-86
2023/02/18 08:21:38;;;;;;;10.23;2.00;;;;;;;;;;6155853;23;20366;-86
2023/02/18 08:24:06;;;;;;;9.85;1.90;;;;;;;;;;6129200;23;20379;-86
2023/02/18 08:26:36;;;;;;;7.53;1.60;;;;;;;;;;6155450;23;20363;-86
2023/02/18 08:29:04;;;;;;;10.43;2.45;;;;;;;;;;6129084;23;20428;-86
2023/02/18 08:31:32;;;;;;;9.00;1.90;;;;;;;;;;6128667;23;20382;-86
2023/02/18 08:34:00;;;;;;;11.25;2.30;;;;;;;;;;6128823;23;20693;-86
2023/02/18 08:36:35;;;;;;;10.88;1.73;;;;;;;;;;6128615;23;20386;-86
2023/02/18 08:39:03;;;;;;;10.35;1.65;;;;;;;;;;6128997;23;20393;-87
2023/02/18 08:41:31;;;;;;;10.23;1.60;;;;;;;;;;6129858;23;20840;-86
2023/02/18 08:44:00;;;;;;;12.40;1.67;;;;;;;;;;6129036;23;20709;-91
2023/02/18 08:46:28;;;;;;;13.97;1.87;;;;;;;;;;6155419;23;20371;-89
2023/02/18 08:48:57;;;;;;;9.85;1.95;;;;;;;;;;6155054;23;20367;-91
2023/02/18 08:51:25;;;;;;;12.13;1.70;;;;;;;;;;6128785;23;20391;-91
2023/02/18 08:53:53;;;;;;;24.00;8.07;;;;;;;;;;6128993;23;20410;-91
2023/02/18 08:56:20;;;;;;;16.48;5.85;;;;;;;;;;6149946;23;20387;-90
2023/02/18 08:58:48;;;;;;;9.27;2.45;;;;;;;;;;6128214;23;20716;-91
2023/02/18 09:01:17;;;;;;;10.65;2.58;;;;;;;;;;6127666;23;20394;-89
2023/02/18 09:03:45;;;;;;;8.93;2.00;;;;;;;;;;6152814;23;20472;-89
2023/02/18 09:06:18;;;;;;;9.20;2.60;;;;;;;;;;6127734;23;20390;-91
2023/02/18 09:08:51;;;;;;;12.25;2.38;;;;;;;;;;6128492;23;20386;-90
2023/02/18 09:11:19;;;;;;;10.93;2.22;;;;;;;;;;6154977;23;20402;-91
2023/02/18 09:13:47;;;;;;;9.23;2.08;;;;;;;;;;6154814;23;20386;-91
2023/02/18 09:16:17;;;;;;;10.43;2.90;;;;;;;;;;6154240;23;20367;-90
2023/02/18 09:18:47;;;;;;;11.65;2.05;;;;;;;;;;6128920;23;20389;-89
2023/02/18 09:21:15;;;;;;;12.18;2.15;;;;;;;;;;6153599;23;20382;-88
2023/02/18 09:23:43;;;;;;;9.32;1.95;;;;;;;;;;6127464;23;20386;-89
2023/02/18 09:26:20;;;;;;;9.90;2.15;;;;;;;;;;6150275;23;20401;-87
2023/02/18 09:28:48;;;;;;;10.45;2.17;;;;;;;;;;6126638;23;20389;-88
2023/02/18 09:31:22;;;;;;;9.52;2.20;;;;;;;;;;6158455;23;21298;-87
2023/02/18 09:33:53;;;;;;;15.45;2.60;;;;;;;;;;6114327;23;20394;-88
2023/02/18 09:36:21;;;;;;;12.37;2.23;;;;;;;;;;6116477;23;20391;-86
2023/02/18 09:38:54;;;;;;;11.27;2.45;;;;;;;;;;6132731;23;20391;-85
2023/02/18 09:41:28;;;;;;;13.13;2.42;;;;;;;;;;6111610;23;20387;-87
2023/02/18 09:44:02;;;;;;;10.30;2.40;;;;;;;;;;6111665;23;20387;-85
2023/02/18 09:46:36;;;;;;;8.23;2.20;;;;;;;;;;6147551;23;20382;-86
2023/02/18 09:49:07;;;;;;;10.15;2.20;;;;;;;;;;6133855;23;20939;-87
2023/02/18 09:51:34;;;;;;;11.70;2.33;;;;;;;;;;6111660;23;20901;-89
2023/02/18 09:54:02;;;;;;;14.73;3.50;;;;;;;;;;6105298;23;20383;-85
2023/02/18 09:56:37;;;;;;;12.77;2.97;;;;;;;;;;6102860;23;20499;-86
2023/02/18 09:59:07;;;;;;;12.27;2.90;;;;;;;;;;6104411;23;20383;-88
2023/02/18 10:01:36;;;;;;;12.73;3.70;;;;;;;;;;6128571;23;20426;-84
2023/02/18 10:04:15;;;;;;;12.52;3.75;;;;;;;;;;6140611;23;20379;-88
2023/02/18 10:06:43;;;;;;;12.53;3.77;;;;;;;;;;6141587;23;20398;-87
2023/02/18 10:09:16;;;;;;;13.18;3.30;;;;;;;;;;6104796;23;20731;-86
2023/02/18 10:11:52;;;;;;;9.00;3.00;;;;;;;;;;6102284;23;20394;-87
2023/02/18 10:14:20;;;;;;;9.15;2.40;;;;;;;;;;6127976;23;20387;-85
2023/02/18 10:16:53;;;;;;;9.35;2.30;;;;;;;;;;6126646;23;20397;-86
2023/02/18 10:19:25;;;;;;;7.60;2.53;;;;;;;;;;6104853;23;20900;-87
2023/02/18 10:21:54;;;;;;;8.77;2.20;;;;;;;;;;6134027;23;21014;-86
2023/02/18 10:24:26;;;;;;;6.85;2.28;;;;;;;;;;6108789;23;20382;-85
2023/02/18 10:26:54;;;;;;;7.70;2.65;;;;;;;;;;6106690;23;20390;-87
2023/02/18 10:29:29;;;;;;;10.95;2.90;;;;;;;;;;6106057;23;20410;-86
2023/02/18 10:32:06;;;;;;;9.77;3.00;;;;;;;;;;6109437;23;21249;-87
2023/02/18 10:34:44;;;;;;;7.30;2.33;;;;;;;;;;6109581;23;20669;-86
2023/02/18 10:37:42;;;;;;;8.15;2.40;;;;;;;;;;6104160;23;20401;-86
2023/02/18 10:40:13;;;;;;;8.77;3.67;;;;;;;;;;6043111;23;20397;-86
2023/02/18 10:42:51;;;;;;;8.87;3.40;;;;;;;;;;6091306;23;20395;-87
2023/02/18 10:45:22;;;;;;;12.07;5.20;;;;;;;;;;6104262;23;20387;-84
2023/02/18 10:47:54;;;;;;;8.03;2.90;;;;;;;;;;6109481;23;20442;-85
2023/02/18 10:50:30;;;;;;;4.75;1.80;;;;;;;;;;6138486;23;20413;-86
2023/02/18 10:53:10;;;;;;;2.75;1.60;;;;;;;;;;6107148;23;20387;-85
2023/02/18 10:55:38;;;;;;;3.15;1.30;;;;;;;;;;6104407;23;20394;-85
2023/02/18 10:58:25;;;;;;;6.57;1.40;;;;;;;;;;6108118;23;20391;-82
2023/02/18 11:00:53;;;;;;;3.30;1.30;;;;;;;;;;6101821;23;20409;-86
2023/02/18 11:03:26;;;;;;;3.00;1.35;;;;;;;;;;6146440;23;20375;-86
2023/02/18 11:06:00;;;;;;;2.50;1.15;;;;;;;;;;6145737;23;20383;-85
2023/02/18 11:08:38;;;;;;;2.38;1.10;;;;;;;;;;6130803;23;20391;-85
2023/02/18 11:11:14;;;;;;;2.42;1.10;;;;;;;;;;6108525;23;20382;-85
2023/02/18 11:13:43;;;;;;;3.10;1.35;;;;;;;;;;6141309;23;20383;-85
2023/02/18 11:16:11;;;;;;;3.50;1.13;;;;;;;;;;6130975;23;20367;-85
2023/02/18 11:18:45;;;;;;;4.60;1.60;;;;;;;;;;6144461;23;20390;-83
2023/02/18 11:21:25;;;;;;;3.35;1.30;;;;;;;;;;6109179;23;20718;-84
2023/02/18 11:23:54;;;;;;;3.50;1.50;;;;;;;;;;6147351;23;20359;-87
2023/02/18 11:26:29;;;;;;;2.63;1.00;;;;;;;;;;6145074;23;20382;-87
2023/02/18 11:29:05;;;;;;;3.22;1.10;;;;;;;;;;6140826;23;20394;-86
2023/02/18 11:31:40;;;;;;;2.90;1.13;;;;;;;;;;6134509;23;20394;-86
2023/02/18 11:34:15;;;;;;;1.92;1.20;;;;;;;;;;6101337;23;21363;-84
2023/02/18 11:36:44;;;;;;;2.38;1.27;;;;;;;;;;6128665;23;20367;-84
2023/02/18 11:39:20;;;;;;;2.17;1.20;;;;;;;;;;6103864;23;20390;-84
2023/02/18 11:41:49;;;;;;;3.20;1.40;;;;;;;;;;6131344;23;20397;-87
2023/02/18 11:44:23;;;;;;;2.50;1.60;;;;;;;;;;6102310;23;20375;-86
2023/02/18 11:46:56;;;;;;;4.67;1.70;;;;;;;;;;6131086;23;20367;-85
2023/02/18 11:49:30;;;;;;;11.07;3.65;;;;;;;;;;6141547;23;20882;-85
2023/02/18 11:52:05;;;;;;;11.50;4.55;;;;;;;;;;6109007;23;20387;-87
2023/02/18 11:54:38;;;;;;;4.82;1.90;;;;;;;;;;6127358;23;20390;-88
2023/02/18 11:57:12;;;;;;;7.00;2.50;;;;;;;;;;6145644;23;21220;-85
2023/02/18 11:59:45;;;;;;;3.38;1.77;;;;;;;;;;6143101;23;20401;-85
2023/02/18 12:02:25;;;;;;;3.00;1.70;;;;;;;;;;6107373;23;20390;-87
2023/02/18 12:05:01;;;;;;;2.65;1.60;;;;;;;;;;6135409;23;20359;-85
2023/02/18 12:07:34;;;;;;;4.82;2.10;;;;;;;;;;6104769;23;20391;-86
2023/02/18 12:10:11;;;;;;;4.80;2.40;;;;;;;;;;6145364;23;20836;-86
2023/02/18 12:12:44;;;;;;;9.15;5.20;;;;;;;;;;6141161;23;20378;-88
2023/02/18 12:15:15;;;;;;;5.05;2.70;;;;;;;;;;6103868;23;20824;-86
2023/02/18 12:17:54;;;;;;;3.20;1.80;;;;;;;;;;6131176;23;20383;-86
2023/02/18 12:20:28;;;;;;;3.80;1.58;;;;;;;;;;6102528;23;20660;-85
2023/02/18 12:23:06;;;;;;;4.27;1.53;;;;;;;;;;6103395;23;20698;-83
2023/02/18 12:25:42;;;;;;;2.33;1.33;;;;;;;;;;6136914;23;20375;-86
2023/02/18 12:28:21;;;;;;;2.23;1.40;;;;;;;;;;6126599;23;20391;-87
2023/02/18 12:31:03;;;;;;;2.22;1.52;;;;;;;;;;6128862;23;20387;-84
2023/02/18 12:33:35;;;;;;;3.25;1.50;;;;;;;;;;6142630;23;20697;-87
2023/02/18 12:36:13;;;;;;;2.72;1.38;;;;;;;;;;6141699;23;20385;-87
2023/02/18 12:38:54;;;;;;;2.90;1.80;;;;;;;;;;6134244;23;20378;-87
2023/02/18 12:41:34;;;;;;;3.50;2.10;;;;;;;;;;6134041;23;21056;-85
2023/02/18 12:44:13;;;;;;;5.43;3.00;;;;;;;;;;6108891;23;20404;-85
2023/02/18 12:46:52;;;;;;;6.00;3.60;;;;;;;;;;6148101;23;20385;-86
2023/02/18 12:49:32;;;;;;;5.18;3.00;;;;;;;;;;6109032;23;20383;-87
2023/02/18 12:52:09;;;;;;;4.80;2.80;;;;;;;;;;6112652;23;20391;-86
2023/02/18 12:54:53;;;;;;;3.95;2.10;;;;;;;;;;6107891;23;21256;-86
2023/02/18 12:57:31;;;;;;;3.10;1.80;;;;;;;;;;6141843;23;20379;-85
2023/02/18 13:00:14;;;;;;;4.35;1.90;;;;;;;;;;6111055;23;20402;-88
2023/02/18 13:02:55;;;;;;;5.25;2.28;;;;;;;;;;6133282;23;20391;-87
2023/02/18 13:05:28;;;;;;;3.47;1.67;;;;;;;;;;6112305;23;20390;-89
2023/02/18 13:08:02;;;;;;;4.60;1.70;;;;;;;;;;6131507;23;20386;-85
2023/02/18 13:10:44;;;;;;;7.35;2.03;;;;;;;;;;6136674;23;20391;-85
2023/02/18 13:13:16;;;;;;;8.60;2.20;;;;;;;;;;6112334;23;20382;-88
2023/02/18 13:15:51;;;;;;;7.40;2.08;;;;;;;;;;6148656;23;20393;-85
2023/02/18 13:18:20;;;;;;;6.65;1.90;;;;;;;;;;6108025;23;20398;-85
2023/02/18 13:20:55;;;;;;;5.38;1.70;;;;;;;;;;6128857;23;20393;-88
2023/02/18 13:23:30;;;;;;;7.15;1.70;;;;;;;;;;6126922;23;20390;-84
2023/02/18 13:26:04;;;;;;;6.07;1.65;;;;;;;;;;6143862;23;20895;-85
2023/02/18 13:28:43;;;;;;;11.27;2.10;;;;;;;;;;6142617;23;20371;-84
2023/02/18 13:31:20;;;;;;;3.60;1.70;;;;;;;;;;6105951;23;20418;-88
2023/02/18 13:33:57;;;;;;;3.85;1.80;;;;;;;;;;6133636;23;20413;-90
2023/02/18 13:36:42;;;;;;;4.20;2.00;;;;;;;;;;6142379;23;20390;-83
2023/02/18 13:39:18;;;;;;;7.15;2.90;;;;;;;;;;6105456;23;20862;-85
2023/02/18 13:41:47;;;;;;;4.93;2.53;;;;;;;;;;6142038;23;20370;-86
2023/02/18 13:44:43;;;;;;;6.10;3.15;;;;;;;;;;6109804;23;20391;-86
2023/02/18 13:47:35;;;;;;;5.80;2.90;;;;;;;;;;6080264;23;20391;-87
2023/02/18 13:50:15;;;;;;;7.55;3.10;;;;;;;;;;6144601;23;20383;-88
2023/02/18 13:52:44;;;;;;;5.93;2.70;;;;;;;;;;6130995;23;20499;-87
2023/02/18 13:55:18;;;;;;;5.00;2.60;;;;;;;;;;6105924;23;20402;-88
2023/02/18 13:57:47;;;;;;;5.72;2.85;;;;;;;;;;6136965;23;20362;-88
2023/02/18 14:00:19;;;;;;;5.57;2.63;;;;;;;;;;6110695;23;20397;-85
2023/02/18 14:02:57;;;;;;;7.80;3.30;;;;;;;;;;6107686;23;20718;-84
2023/02/18 14:05:37;;;;;;;6.03;3.03;;;;;;;;;;6143748;23;20359;-88
2023/02/18 14:08:12;;;;;;;7.57;3.42;;;;;;;;;;6130083;23;20399;-87
2023/02/18 14:11:09;;;;;;;5.60;2.92;;;;;;;;;;6109341;23;20483;-87
2023/02/18 14:13:40;;;;;;;5.57;2.50;;;;;;;;;;6135777;23;20398;-83
2023/02/18 14:16:13;;;;;;;4.05;2.10;;;;;;;;;;6104593;23;20390;-86
2023/02/18 14:18:59;;;;;;;3.93;1.87;;;;;;;;;;6130875;23;20413;-84
2023/02/18 14:21:36;;;;;;;4.35;2.35;;;;;;;;;;6102185;23;20387;-87
2023/02/18 14:24:06;;;;;;;4.55;2.20;;;;;;;;;;6105433;23;20387;-85
2023/02/18 14:26:36;;;;;;;3.90;2.10;;;;;;;;;;6103653;23;20390;-86
2023/02/18 14:29:21;;;;;;;3.92;2.10;;;;;;;;;;6131546;23;21144;-86
2023/02/18 14:31:54;;;;;;;3.47;2.10;;;;;;;;;;6102033;23;21139;-84
2023/02/18 14:34:46;;;;;;;3.33;1.80;;;;;;;;;;6138468;23;20378;-84
2023/02/18 14:37:35;;;;;;;3.95;1.60;;;;;;;;;;6127671;23;20934;-86
2023/02/18 14:40:17;;;;;;;2.72;1.60;;;;;;;;;;6127576;23;20387;-86
2023/02/18 14:42:48;;;;;;;2.27;1.57;;;;;;;;;;6104125;23;20412;-86
2023/02/18 14:45:21;;;;;;;3.10;1.63;;;;;;;;;;6107391;23;20398;-87
2023/02/18 14:48:11;;;;;;;2.85;1.67;;;;;;;;;;6130963;23;20391;-85
2023/02/18 14:50:45;;;;;;;4.17;2.00;;;;;;;;;;6106664;23;20398;-86
2023/02/18 14:53:17;;;;;;;2.97;1.50;;;;;;;;;;6130229;23;20370;-86
2023/02/18 14:55:53;;;;;;;2.40;1.40;;;;;;;;;;6142137;23;20708;-84
2023/02/18 14:58:29;;;;;;;2.55;1.30;;;;;;;;;;6142315;23;20382;-86
2023/02/18 15:00:57;;;;;;;2.08;1.15;;;;;;;;;;6103689;23;20391;-86
2023/02/18 15:03:27;;;;;;;1.45;1.00;;;;;;;;;;6132345;23;20623;-86
2023/02/18 15:05:59;;;;;;;1.02;0.80;;;;;;;;;;6133027;23;20386;-87
2023/02/18 15:08:36;;;;;;;1.05;0.80;;;;;;;;;;6132101;23;20391;-84
2023/02/18 15:11:11;;;;;;;1.63;0.70;;;;;;;;;;6128369;23;20868;-86